Time,TemperatureF,DewpointF,PressureIn,WindDirection,WindDirectionDegrees,WindSpeedMPH,WindSpeedGustMPH,Humidity,HourlyPrecipIn,Conditions,Clouds,dailyrainin,SoftwareType,DateUTC
2013-01-11 00:02:00,50.2,45.5,29.92,SSW,194,3.1,5.8,84,0.00,,---,0.00,VWS V14.00,2013-01-11 06:02:00,
2013-01-11 00:10:00,50.2,45.5,29.92,SSW,203,5.8,7.4,84,0.00,,---,0.00,VWS V14.00,2013-01-11 06:10:00,
2013-01-11 00:22:00,50.4,45.4,29.92,South,182,0.0,7.8,83,0.00,,---,0.00,VWS V14.00,2013-01-11 06:22:00,
2013-01-11 00:32:00,50.4,45.4,29.92,South,184,4.0,9.2,83,0.00,,---,0.00,VWS V14.00,2013-01-11 06:32:00,
2013-01-11 00:40:00,50.2,45.2,29.92,SSW,212,5.8,7.8,83,0.00,,---,0.00,VWS V14.00,2013-01-11 06:40:00,
2013-01-11 00:52:00,50.2,45.2,29.92,SSE,161,6.9,9.2,83,0.00,,---,0.00,VWS V14.00,2013-01-11 06:52:00,
2013-01-11 01:02:00,50.2,45.2,29.92,SSW,199,0.0,8.3,83,0.00,,---,0.00,VWS V14.00,2013-01-11 07:02:00,
2013-01-11 01:10:00,49.6,44.7,29.92,South,176,0.0,6.7,83,0.00,,---,0.00,VWS V14.00,2013-01-11 07:10:00,
2013-01-11 01:22:00,49.5,44.5,29.92,SSW,202,0.0,5.4,83,0.00,,---,0.00,VWS V14.00,2013-01-11 07:22:00,
2013-01-11 01:32:00,49.5,44.5,29.92,SW,217,0.0,8.7,83,0.00,,---,0.00,VWS V14.00,2013-01-11 07:32:00,
2013-01-11 01:40:00,49.3,44.3,29.92,SSW,212,0.0,6.7,83,0.00,,---,0.00,VWS V14.00,2013-01-11 07:40:00,
2013-01-11 01:52:00,49.3,44.3,29.92,SSE,157,0.0,6.3,83,0.00,,---,0.00,VWS V14.00,2013-01-11 07:52:00,
2013-01-11 02:02:00,49.3,44.3,29.92,South,184,0.0,0.0,83,0.00,,---,0.00,VWS V14.00,2013-01-11 08:02:00,
2013-01-11 02:10:00,49.5,44.8,29.92,SSW,203,5.4,7.4,84,0.00,,---,0.00,VWS V14.00,2013-01-11 08:10:00,
2013-01-11 02:22:00,49.6,45.0,29.92,SW,225,0.0,7.8,84,0.00,,---,0.00,VWS V14.00,2013-01-11 08:22:00,
2013-01-11 02:32:00,49.6,45.0,29.92,South,174,0.0,5.4,84,0.00,,---,0.00,VWS V14.00,2013-01-11 08:32:00,
2013-01-11 02:40:00,49.8,45.2,29.92,SSW,195,0.0,7.8,84,0.00,,---,0.00,VWS V14.00,2013-01-11 08:40:00,
2013-01-11 02:52:00,50.0,45.4,29.92,SSW,206,0.0,8.3,84,0.00,,---,0.00,VWS V14.00,2013-01-11 08:52:00,
2013-01-11 03:02:00,50.0,45.0,29.92,South,191,0.0,8.3,83,0.00,,---,0.00,VWS V14.00,2013-01-11 09:02:00,
2013-01-11 03:12:00,50.0,45.0,29.92,SSE,151,0.0,3.6,83,0.00,,---,0.00,VWS V14.00,2013-01-11 09:12:00,
2013-01-11 03:22:00,50.0,45.0,29.92,South,190,0.0,8.3,83,0.00,,---,0.00,VWS V14.00,2013-01-11 09:22:00,
2013-01-11 03:32:00,49.8,44.9,29.92,SW,216,0.0,4.9,83,0.00,,---,0.00,VWS V14.00,2013-01-11 09:32:00,
2013-01-11 03:42:00,50.0,45.0,29.89,SSW,194,0.0,10.1,83,0.00,,---,0.00,VWS V14.00,2013-01-11 09:42:00,
2013-01-11 03:52:00,50.4,45.4,29.89,South,173,0.0,6.3,83,0.00,,---,0.00,VWS V14.00,2013-01-11 09:52:00,
2013-01-11 04:00:00,50.4,45.1,29.89,SSW,192,0.0,5.8,82,0.00,,---,0.00,VWS V14.00,2013-01-11 10:00:00,
2013-01-11 04:12:00,50.4,45.1,29.89,SSW,207,0.0,7.8,82,0.00,,---,0.00,VWS V14.00,2013-01-11 10:12:00,
2013-01-11 04:22:00,50.4,45.1,29.86,SW,221,0.0,5.4,82,0.00,,---,0.00,VWS V14.00,2013-01-11 10:22:00,
2013-01-11 04:32:00,50.2,44.6,29.86,SSW,194,0.0,0.0,81,0.00,,---,0.00,VWS V14.00,2013-01-11 10:32:00,
2013-01-11 04:42:00,50.0,44.4,29.89,SW,235,0.0,0.0,81,0.00,,---,0.00,VWS V14.00,2013-01-11 10:42:00,
2013-01-11 04:50:00,49.6,44.1,29.86,South,190,0.0,5.8,81,0.00,,---,0.00,VWS V14.00,2013-01-11 10:50:00,
2013-01-11 05:02:00,49.5,43.9,29.86,SSW,198,0.0,6.3,81,0.00,,---,0.00,VWS V14.00,2013-01-11 11:02:00,
2013-01-11 05:12:00,49.5,43.6,29.86,SSW,209,0.0,8.3,80,0.00,,---,0.00,VWS V14.00,2013-01-11 11:12:00,
2013-01-11 05:20:00,49.6,44.1,29.86,SSW,193,3.6,10.5,81,0.00,,---,0.00,VWS V14.00,2013-01-11 11:20:00,
2013-01-11 05:32:00,50.0,44.4,29.86,South,178,3.6,12.1,81,0.00,,---,0.00,VWS V14.00,2013-01-11 11:32:00,
2013-01-11 05:42:00,50.0,44.1,29.86,SSW,200,6.3,12.5,80,0.00,,---,0.00,VWS V14.00,2013-01-11 11:42:00,
2013-01-11 05:50:00,50.2,44.3,29.86,SW,217,4.9,11.0,80,0.00,,---,0.00,VWS V14.00,2013-01-11 11:50:00,
2013-01-11 06:02:00,50.2,44.3,29.86,West,263,4.0,13.9,80,0.00,,---,0.00,VWS V14.00,2013-01-11 12:02:00,
2013-01-11 06:12:00,50.5,44.3,29.86,SSW,197,6.3,12.1,79,0.00,,---,0.00,VWS V14.00,2013-01-11 12:12:00,
2013-01-11 06:20:00,50.2,43.9,29.86,SSW,198,9.6,9.6,79,0.00,,---,0.00,VWS V14.00,2013-01-11 12:20:00,
2013-01-11 06:32:00,50.0,43.8,29.86,SSW,213,8.3,10.5,79,0.00,,---,0.00,VWS V14.00,2013-01-11 12:32:00,
2013-01-11 06:42:00,49.6,43.4,29.89,South,190,2.7,8.3,79,0.00,,---,0.00,VWS V14.00,2013-01-11 12:42:00,
2013-01-11 06:50:00,49.1,42.9,29.89,SSW,204,4.5,6.9,79,0.00,,---,0.00,VWS V14.00,2013-01-11 12:50:00,
2013-01-11 07:02:00,48.9,42.7,29.89,SSW,195,4.5,6.3,79,0.00,,---,0.00,VWS V14.00,2013-01-11 13:02:00,
2013-01-11 07:12:00,48.7,42.5,29.89,South,177,0.0,5.8,79,0.00,,---,0.00,VWS V14.00,2013-01-11 13:12:00,
2013-01-11 07:21:00,48.2,42.0,29.89,SSE,148,2.7,5.8,79,0.00,,---,0.00,VWS V14.00,2013-01-11 13:21:00,
2013-01-11 07:32:00,48.2,42.3,29.89,SW,232,4.9,8.3,80,0.00,,---,0.00,VWS V14.00,2013-01-11 13:32:00,
2013-01-11 07:42:00,48.4,42.5,29.86,SSW,201,4.0,7.4,80,0.00,,---,0.00,VWS V14.00,2013-01-11 13:42:00,
2013-01-11 07:51:00,48.6,42.7,29.86,SSW,200,4.9,7.8,80,0.00,,---,0.00,VWS V14.00,2013-01-11 13:51:00,
2013-01-11 08:02:00,48.9,43.0,29.86,SW,231,7.4,9.2,80,0.00,,---,0.00,VWS V14.00,2013-01-11 14:02:00,
2013-01-11 08:12:00,49.3,43.4,29.86,SSW,197,4.5,7.4,80,0.00,,---,0.00,VWS V14.00,2013-01-11 14:12:00,
2013-01-11 08:22:00,49.8,43.9,29.89,SW,215,4.9,10.1,80,0.00,,---,0.00,VWS V14.00,2013-01-11 14:22:00,
2013-01-11 08:30:00,50.5,44.6,29.89,SSW,201,4.0,6.7,80,0.00,,---,0.00,VWS V14.00,2013-01-11 14:30:00,
2013-01-11 08:42:00,51.4,45.5,29.89,SSW,200,4.5,6.9,80,0.00,,---,0.00,VWS V14.00,2013-01-11 14:42:00,
2013-01-11 08:52:00,52.5,46.2,29.89,SSW,212,6.7,7.8,79,0.00,,---,0.00,VWS V14.00,2013-01-11 14:52:00,
2013-01-11 09:00:00,53.6,46.9,29.89,SSE,155,4.5,8.3,78,0.00,,---,0.00,VWS V14.00,2013-01-11 15:00:00,
2013-01-11 09:12:00,54.7,47.6,29.89,SE,134,3.6,7.4,77,0.00,,---,0.00,VWS V14.00,2013-01-11 15:12:00,
2013-01-11 09:22:00,55.0,47.3,29.89,South,186,3.6,9.6,75,0.00,,---,0.00,VWS V14.00,2013-01-11 15:22:00,
2013-01-11 09:30:00,55.0,46.9,29.89,SE,139,5.4,8.7,74,0.00,,---,0.00,VWS V14.00,2013-01-11 15:30:00,
2013-01-11 09:42:00,55.4,47.3,29.86,South,176,2.7,8.7,74,0.00,,---,0.00,VWS V14.00,2013-01-11 15:42:00,
2013-01-11 09:52:00,55.6,47.4,29.89,SW,219,3.1,5.8,74,0.00,,---,0.00,VWS V14.00,2013-01-11 15:52:00,
2013-01-11 10:00:00,56.8,48.7,29.89,SSW,201,2.7,6.3,74,0.00,,---,0.00,VWS V14.00,2013-01-11 16:00:00,
2013-01-11 10:10:00,58.5,49.8,29.89,SSW,207,8.3,8.7,73,0.00,,---,0.00,VWS V14.00,2013-01-11 16:10:00,
2013-01-11 10:22:00,59.9,50.9,29.89,South,191,7.8,9.6,72,0.00,,---,0.00,VWS V14.00,2013-01-11 16:22:00,
2013-01-11 10:30:00,61.5,51.7,29.89,South,180,6.9,10.5,70,0.00,,---,0.00,VWS V14.00,2013-01-11 16:30:00,
2013-01-11 10:42:00,62.8,52.1,29.86,South,189,4.9,14.3,68,0.00,,---,0.00,VWS V14.00,2013-01-11 16:42:00,
2013-01-11 10:52:00,63.5,52.4,29.89,SW,222,7.8,10.5,67,0.00,,---,0.00,VWS V14.00,2013-01-11 16:52:00,
2013-01-11 11:00:00,63.9,51.9,29.89,SW,217,8.3,10.1,65,0.00,,---,0.00,VWS V14.00,2013-01-11 17:00:00,
2013-01-11 11:12:00,65.1,52.7,29.86,SW,223,4.9,9.2,64,0.00,,---,0.00,VWS V14.00,2013-01-11 17:12:00,
2013-01-11 11:22:00,66.2,52.4,29.86,SSW,203,6.3,12.1,61,0.00,,---,0.00,VWS V14.00,2013-01-11 17:22:00,
2013-01-11 11:30:00,66.9,52.6,29.86,SW,219,2.7,11.2,60,0.00,,---,0.00,VWS V14.00,2013-01-11 17:30:00,
2013-01-11 11:42:00,66.6,50.9,29.83,SSW,195,5.8,12.1,57,0.00,,---,0.00,VWS V14.00,2013-01-11 17:42:00,
2013-01-11 11:50:00,66.6,49.9,29.83,South,191,6.3,11.2,55,0.00,,---,0.00,VWS V14.00,2013-01-11 17:50:00,
2013-01-11 12:00:00,67.5,49.8,29.83,WSW,241,5.4,13.4,53,0.00,,---,0.00,VWS V14.00,2013-01-11 18:00:00,
2013-01-11 12:12:00,67.6,49.9,29.83,SSW,207,6.9,13.4,53,0.00,,---,0.00,VWS V14.00,2013-01-11 18:12:00,
2013-01-11 12:22:00,67.8,49.0,29.83,WSW,240,4.0,15.4,51,0.00,,---,0.00,VWS V14.00,2013-01-11 18:22:00,
2013-01-11 12:32:00,68.7,49.3,29.83,South,181,9.2,12.5,50,0.00,,---,0.00,VWS V14.00,2013-01-11 18:32:00,
2013-01-11 12:42:00,69.3,49.8,29.80,SSW,208,6.7,15.9,50,0.00,,---,0.00,VWS V14.00,2013-01-11 18:42:00,
2013-01-11 12:52:00,68.7,49.3,29.80,ESE,119,8.7,11.2,50,0.00,,---,0.00,VWS V14.00,2013-01-11 18:52:00,
2013-01-11 13:02:00,67.5,48.7,29.80,SSW,196,4.5,13.9,51,0.00,,---,0.00,VWS V14.00,2013-01-11 19:02:00,
2013-01-11 13:12:00,67.1,48.9,29.80,SSW,194,9.6,11.2,52,0.00,,---,0.00,VWS V14.00,2013-01-11 19:12:00,
2013-01-11 13:22:00,67.3,49.6,29.80,SSW,194,7.8,10.1,53,0.00,,---,0.00,VWS V14.00,2013-01-11 19:22:00,
2013-01-11 13:32:00,68.5,50.8,29.80,SW,224,4.5,13.9,53,0.00,,---,0.00,VWS V14.00,2013-01-11 19:32:00,
2013-01-11 13:40:00,69.1,51.2,29.78,SSW,201,6.9,13.0,53,0.00,,---,0.00,VWS V14.00,2013-01-11 19:40:00,
2013-01-11 13:50:00,70.5,52.6,29.78,South,184,5.8,11.2,53,0.00,,---,0.00,VWS V14.00,2013-01-11 19:50:00,
2013-01-11 14:02:00,69.6,51.2,29.78,SSE,148,3.6,10.5,52,0.00,,---,0.00,VWS V14.00,2013-01-11 20:02:00,
2013-01-11 14:10:00,69.6,51.8,29.78,SSE,158,6.9,9.6,53,0.00,,---,0.00,VWS V14.00,2013-01-11 20:10:00,
2013-01-11 14:22:00,69.8,51.4,29.78,SSW,196,6.9,11.2,52,0.00,,---,0.00,VWS V14.00,2013-01-11 20:22:00,
2013-01-11 14:32:00,70.7,52.2,29.78,SSW,192,7.4,11.2,52,0.00,,---,0.00,VWS V14.00,2013-01-11 20:32:00,
2013-01-11 14:40:00,70.7,51.2,29.78,SW,218,6.7,11.6,50,0.00,,---,0.00,VWS V14.00,2013-01-11 20:40:00,
2013-01-11 14:52:00,70.2,50.7,29.78,SSW,192,3.1,13.4,50,0.00,,---,0.00,VWS V14.00,2013-01-11 20:52:00,
2013-01-11 15:02:00,70.0,50.5,29.78,South,185,5.8,10.1,50,0.00,,---,0.00,VWS V14.00,2013-01-11 21:02:00,
2013-01-11 15:12:00,70.2,50.7,29.78,SW,230,5.4,7.8,50,0.00,,---,0.00,VWS V14.00,2013-01-11 21:12:00,
2013-01-11 15:22:00,69.4,50.0,29.78,SSE,161,5.4,9.2,50,0.00,,---,0.00,VWS V14.00,2013-01-11 21:22:00,
2013-01-11 15:32:00,69.1,49.7,29.78,SSW,198,5.8,12.1,50,0.00,,---,0.00,VWS V14.00,2013-01-11 21:32:00,
2013-01-11 15:40:00,69.1,49.7,29.78,SSW,193,7.4,9.6,50,0.00,,---,0.00,VWS V14.00,2013-01-11 21:40:00,
2013-01-11 15:52:00,70.5,51.0,29.78,South,180,4.0,8.7,50,0.00,,---,0.00,VWS V14.00,2013-01-11 21:52:00,
2013-01-11 16:02:00,71.6,51.5,29.78,SW,222,4.0,7.8,49,0.00,,---,0.00,VWS V14.00,2013-01-11 22:02:00,
2013-01-11 16:12:00,72.3,51.5,29.78,SSW,203,4.9,10.1,48,0.00,,---,0.00,VWS V14.00,2013-01-11 22:12:00,
2013-01-11 16:22:00,71.2,50.6,29.75,SSW,192,5.4,7.8,48,0.00,,---,0.00,VWS V14.00,2013-01-11 22:22:00,
2013-01-11 16:32:00,70.7,50.1,29.75,SSE,166,7.4,10.1,48,0.00,,---,0.00,VWS V14.00,2013-01-11 22:32:00,
2013-01-11 16:42:00,70.7,49.5,29.75,SW,227,4.5,12.5,47,0.00,,---,0.00,VWS V14.00,2013-01-11 22:42:00,
2013-01-11 16:52:00,70.2,49.0,29.75,South,186,4.0,8.7,47,0.00,,---,0.00,VWS V14.00,2013-01-11 22:52:00,
2013-01-11 17:00:00,69.8,49.2,29.75,SSE,150,6.3,12.1,48,0.00,,---,0.00,VWS V14.00,2013-01-11 23:00:00,
2013-01-11 17:12:00,69.4,48.9,29.75,SSW,206,3.6,13.4,48,0.00,,---,0.00,VWS V14.00,2013-01-11 23:12:00,
2013-01-11 17:20:00,68.9,49.5,29.75,SW,229,4.5,11.0,50,0.00,,---,0.00,VWS V14.00,2013-01-11 23:20:00,
2013-01-11 17:32:00,68.4,49.5,29.75,SSW,197,7.8,11.0,51,0.00,,---,0.00,VWS V14.00,2013-01-11 23:32:00,
2013-01-11 17:40:00,68.0,50.2,29.75,SSE,162,4.5,11.6,53,0.00,,---,0.00,VWS V14.00,2013-01-11 23:40:00,
2013-01-11 17:50:00,67.6,50.9,29.75,South,190,8.7,12.1,55,0.00,,---,0.00,VWS V14.00,2013-01-11 23:50:00,
2013-01-11 18:02:00,67.3,51.1,29.75,SSE,151,3.6,11.2,56,0.00,,---,0.00,VWS V14.00,2013-01-12 00:02:00,
2013-01-11 18:10:00,66.9,51.7,29.78,SSW,199,5.4,9.2,58,0.00,,---,0.00,VWS V14.00,2013-01-12 00:10:00,
2013-01-11 18:20:00,66.6,52.3,29.78,SE,140,3.6,8.7,60,0.00,,---,0.00,VWS V14.00,2013-01-12 00:20:00,
2013-01-11 18:32:00,66.0,52.2,29.78,SSW,193,3.1,7.4,61,0.00,,---,0.00,VWS V14.00,2013-01-12 00:32:00,
2013-01-11 18:40:00,65.8,52.5,29.78,SSE,149,4.9,7.4,62,0.00,,---,0.00,VWS V14.00,2013-01-12 00:40:00,
2013-01-11 18:50:00,65.7,52.7,29.78,SSW,198,5.4,6.9,63,0.00,,---,0.00,VWS V14.00,2013-01-12 00:50:00,
2013-01-11 19:02:00,65.8,53.8,29.78,South,173,5.4,9.6,65,0.00,,---,0.00,VWS V14.00,2013-01-12 01:02:00,
2013-01-11 19:12:00,65.8,54.2,29.78,SSW,201,5.4,10.5,66,0.00,,---,0.00,VWS V14.00,2013-01-12 01:12:00,
2013-01-11 19:22:00,66.0,54.8,29.78,SW,217,7.4,10.5,67,0.00,,---,0.00,VWS V14.00,2013-01-12 01:22:00,
2013-01-11 19:32:00,65.8,54.6,29.78,SSW,201,5.4,11.0,67,0.00,,---,0.00,VWS V14.00,2013-01-12 01:32:00,
2013-01-11 19:42:00,66.0,55.6,29.78,SW,226,4.0,12.5,69,0.00,,---,0.00,VWS V14.00,2013-01-12 01:42:00,
2013-01-11 19:52:00,65.8,55.4,29.78,SSW,209,5.4,11.2,69,0.00,,---,0.00,VWS V14.00,2013-01-12 01:52:00,
2013-01-11 20:02:00,65.8,55.8,29.78,SSW,200,5.8,13.9,70,0.00,,---,0.00,VWS V14.00,2013-01-12 02:02:00,
2013-01-11 20:12:00,65.7,56.0,29.78,South,189,5.8,10.1,71,0.00,,---,0.00,VWS V14.00,2013-01-12 02:12:00,
2013-01-11 20:22:00,65.7,56.4,29.78,SSW,199,5.8,11.2,72,0.00,,---,0.00,VWS V14.00,2013-01-12 02:22:00,
2013-01-11 20:32:00,65.7,56.4,29.78,SSW,192,4.5,12.1,72,0.00,,---,0.00,VWS V14.00,2013-01-12 02:32:00,
2013-01-11 20:42:00,65.1,56.3,29.78,SW,216,4.5,8.3,73,0.00,,---,0.00,VWS V14.00,2013-01-12 02:42:00,
2013-01-11 20:52:00,65.1,56.6,29.80,SW,224,4.9,11.6,74,0.00,,---,0.00,VWS V14.00,2013-01-12 02:52:00,
2013-01-11 21:02:00,65.1,57.0,29.80,SSE,162,4.5,11.2,75,0.00,,---,0.00,VWS V14.00,2013-01-12 03:02:00,
2013-01-11 21:12:00,64.8,56.7,29.80,SSW,197,6.3,11.6,75,0.00,,---,0.00,VWS V14.00,2013-01-12 03:12:00,
2013-01-11 21:22:00,64.6,56.8,29.80,SSW,193,4.9,9.6,76,0.00,,---,0.00,VWS V14.00,2013-01-12 03:22:00,
2013-01-11 21:30:00,64.6,57.2,29.80,SW,218,8.3,9.6,77,0.00,,---,0.00,VWS V14.00,2013-01-12 03:30:00,
2013-01-11 21:42:00,64.4,57.4,29.80,SSW,197,3.6,10.5,78,0.00,,---,0.00,VWS V14.00,2013-01-12 03:42:00,
2013-01-11 21:52:00,64.4,57.4,29.80,SSW,210,4.5,11.6,78,0.00,,---,0.00,VWS V14.00,2013-01-12 03:52:00,
2013-01-11 22:00:00,64.2,57.6,29.80,SSE,155,4.9,9.6,79,0.00,,---,0.00,VWS V14.00,2013-01-12 04:00:00,
2013-01-11 22:12:00,63.9,57.6,29.80,South,185,4.5,10.1,80,0.00,,---,0.00,VWS V14.00,2013-01-12 04:12:00,
2013-01-11 22:22:00,63.5,57.2,29.80,South,169,4.0,10.1,80,0.00,,---,0.00,VWS V14.00,2013-01-12 04:22:00,
2013-01-11 22:31:00,63.3,57.4,29.80,South,186,4.5,9.2,81,0.00,,---,0.00,VWS V14.00,2013-01-12 04:31:00,
2013-01-11 22:42:00,63.5,57.6,29.80,SSW,200,4.5,9.6,81,0.00,,---,0.00,VWS V14.00,2013-01-12 04:42:00,
2013-01-11 22:52:00,63.9,58.3,29.80,SSW,204,7.4,10.5,82,0.00,,---,0.00,VWS V14.00,2013-01-12 04:52:00,
2013-01-11 23:02:00,64.2,59.0,29.80,SSW,201,4.5,13.0,83,0.00,,---,0.00,VWS V14.00,2013-01-12 05:02:00,
2013-01-11 23:12:00,64.2,59.0,29.80,SSW,194,6.7,12.1,83,0.00,,---,0.00,VWS V14.00,2013-01-12 05:12:00,
2013-01-11 23:22:00,64.4,59.5,29.80,SSE,147,7.8,13.0,84,0.00,,---,0.00,VWS V14.00,2013-01-12 05:22:00,
2013-01-11 23:30:00,64.8,60.2,29.80,SSW,195,8.3,14.3,85,0.00,,---,0.00,VWS V14.00,2013-01-12 05:30:00,
2013-01-11 23:42:00,64.8,60.2,29.80,SSE,167,4.5,11.6,85,0.00,,---,0.00,VWS V14.00,2013-01-12 05:42:00,
2013-01-11 23:52:00,64.8,60.5,29.80,SSW,209,9.6,11.0,86,0.00,,---,0.00,VWS V14.00,2013-01-12 05:52:00,